sensor_id;sensor_type;location;lat;lon;timestamp;P1;durP1;ratioP1;P2;durP2;ratioP2
61407;SDS011;47274;43.054;25.146;2024-03-02T00:01:17;35.72;;;19.48;;
61407;SDS011;47274;43.054;25.146;2024-03-02T00:03:43;35.78;;;20.50;;
61407;SDS011;47274;43.054;25.146;2024-03-02T00:06:09;33.80;;;18.25;;
61407;SDS011;47274;43.054;25.146;2024-03-02T00:08:35;33.30;;;18.85;;
61407;SDS011;47274;43.054;25.146;2024-03-02T00:11:01;32.95;;;18.67;;
61407;SDS011;47274;43.054;25.146;2024-03-02T00:13:33;34.15;;;19.00;;
61407;SDS011;47274;43.054;25.146;2024-03-02T00:16:00;34.50;;;19.27;;
61407;SDS011;47274;43.054;25.146;2024-03-02T00:18:33;36.70;;;20.33;;
61407;SDS011;47274;43.054;25.146;2024-03-02T00:21:00;33.08;;;18.65;;
61407;SDS011;47274;43.054;25.146;2024-03-02T00:23:29;32.65;;;18.10;;
61407;SDS011;47274;43.054;25.146;2024-03-02T00:25:58;33.55;;;18.63;;
61407;SDS011;47274;43.054;25.146;2024-03-02T00:28:36;34.17;;;18.63;;
61407;SDS011;47274;43.054;25.146;2024-03-02T00:31:09;31.52;;;18.23;;
61407;SDS011;47274;43.054;25.146;2024-03-02T00:33:46;33.00;;;19.25;;
61407;SDS011;47274;43.054;25.146;2024-03-02T00:36:14;35.03;;;19.23;;
61407;SDS011;47274;43.054;25.146;2024-03-02T00:38:44;33.58;;;18.65;;
61407;SDS011;47274;43.054;25.146;2024-03-02T00:41:33;35.22;;;20.13;;
61407;SDS011;47274;43.054;25.146;2024-03-02T00:51:36;34.03;;;18.92;;
61407;SDS011;47274;43.054;25.146;2024-03-02T00:54:03;32.72;;;18.33;;
61407;SDS011;47274;43.054;25.146;2024-03-02T00:56:33;31.60;;;18.55;;
61407;SDS011;47274;43.054;25.146;2024-03-02T00:59:00;34.90;;;20.15;;
61407;SDS011;47274;43.054;25.146;2024-03-02T01:01:29;35.28;;;18.95;;
61407;SDS011;47274;43.054;25.146;2024-03-02T01:03:54;35.88;;;19.88;;
61407;SDS011;47274;43.054;25.146;2024-03-02T01:06:29;37.33;;;21.80;;
61407;SDS011;47274;43.054;25.146;2024-03-02T01:08:55;36.22;;;19.98;;
61407;SDS011;47274;43.054;25.146;2024-03-02T01:11:21;34.60;;;19.25;;
61407;SDS011;47274;43.054;25.146;2024-03-02T01:13:47;35.63;;;20.92;;
61407;SDS011;47274;43.054;25.146;2024-03-02T01:16:13;35.60;;;20.58;;
61407;SDS011;47274;43.054;25.146;2024-03-02T01:18:44;35.70;;;19.85;;
61407;SDS011;47274;43.054;25.146;2024-03-02T01:21:09;36.53;;;21.35;;
61407;SDS011;47274;43.054;25.146;2024-03-02T01:23:35;36.20;;;20.15;;
61407;SDS011;47274;43.054;25.146;2024-03-02T01:26:01;38.70;;;21.70;;
61407;SDS011;47274;43.054;25.146;2024-03-02T01:28:30;37.22;;;21.38;;
61407;SDS011;47274;43.054;25.146;2024-03-02T01:30:58;34.60;;;20.38;;
61407;SDS011;47274;43.054;25.146;2024-03-02T01:33:30;38.88;;;20.80;;
61407;SDS011;47274;43.054;25.146;2024-03-02T01:35:59;44.80;;;23.58;;
61407;SDS011;47274;43.054;25.146;2024-03-02T01:38:25;42.60;;;23.95;;
61407;SDS011;47274;43.054;25.146;2024-03-02T01:40:50;37.22;;;21.05;;
61407;SDS011;47274;43.054;25.146;2024-03-02T01:46:05;40.95;;;20.42;;
61407;SDS011;47274;43.054;25.146;2024-03-02T01:48:31;44.65;;;22.58;;
61407;SDS011;47274;43.054;25.146;2024-03-02T01:51:00;36.95;;;20.42;;
61407;SDS011;47274;43.054;25.146;2024-03-02T01:53:26;35.45;;;20.63;;
61407;SDS011;47274;43.054;25.146;2024-03-02T01:55:53;36.38;;;20.42;;
61407;SDS011;47274;43.054;25.146;2024-03-02T01:58:19;39.90;;;22.48;;
61407;SDS011;47274;43.054;25.146;2024-03-02T02:00:46;36.25;;;20.70;;
61407;SDS011;47274;43.054;25.146;2024-03-02T02:03:13;34.63;;;18.75;;
61407;SDS011;47274;43.054;25.146;2024-03-02T02:05:42;37.25;;;21.05;;
61407;SDS011;47274;43.054;25.146;2024-03-02T02:08:12;40.47;;;22.25;;
61407;SDS011;47274;43.054;25.146;2024-03-02T02:10:38;37.60;;;20.83;;
61407;SDS011;47274;43.054;25.146;2024-03-02T02:13:07;42.38;;;22.38;;
61407;SDS011;47274;43.054;25.146;2024-03-02T02:15:37;42.72;;;23.23;;
61407;SDS011;47274;43.054;25.146;2024-03-02T02:18:02;37.90;;;21.70;;
61407;SDS011;47274;43.054;25.146;2024-03-02T02:20:29;45.72;;;25.42;;
61407;SDS011;47274;43.054;25.146;2024-03-02T02:22:58;43.28;;;26.05;;
61407;SDS011;47274;43.054;25.146;2024-03-02T02:25:29;46.25;;;26.48;;
61407;SDS011;47274;43.054;25.146;2024-03-02T02:27:55;37.85;;;22.25;;
61407;SDS011;47274;43.054;25.146;2024-03-02T02:30:29;40.70;;;24.50;;
61407;SDS011;47274;43.054;25.146;2024-03-02T02:32:57;47.75;;;29.20;;
61407;SDS011;47274;43.054;25.146;2024-03-02T02:35:26;49.42;;;28.63;;
61407;SDS011;47274;43.054;25.146;2024-03-02T02:37:52;41.28;;;23.60;;
61407;SDS011;47274;43.054;25.146;2024-03-02T02:40:19;37.42;;;20.05;;
61407;SDS011;47274;43.054;25.146;2024-03-02T02:42:48;40.72;;;22.30;;
61407;SDS011;47274;43.054;25.146;2024-03-02T02:45:14;34.08;;;17.08;;
61407;SDS011;47274;43.054;25.146;2024-03-02T02:47:41;29.65;;;15.05;;
61407;SDS011;47274;43.054;25.146;2024-03-02T02:50:09;31.20;;;16.08;;
61407;SDS011;47274;43.054;25.146;2024-03-02T02:52:40;29.67;;;15.63;;
61407;SDS011;47274;43.054;25.146;2024-03-02T02:55:08;30.27;;;16.02;;
61407;SDS011;47274;43.054;25.146;2024-03-02T02:57:35;28.77;;;14.55;;
61407;SDS011;47274;43.054;25.146;2024-03-02T03:00:14;30.88;;;15.15;;
61407;SDS011;47274;43.054;25.146;2024-03-02T03:02:41;28.85;;;14.30;;
61407;SDS011;47274;43.054;25.146;2024-03-02T03:05:09;40.10;;;23.33;;
61407;SDS011;47274;43.054;25.146;2024-03-02T03:07:36;27.63;;;14.85;;
61407;SDS011;47274;43.054;25.146;2024-03-02T03:10:03;30.20;;;15.80;;
61407;SDS011;47274;43.054;25.146;2024-03-02T03:12:30;31.63;;;18.17;;
61407;SDS011;47274;43.054;25.146;2024-03-02T03:14:59;47.63;;;27.38;;
61407;SDS011;47274;43.054;25.146;2024-03-02T03:17:34;35.97;;;19.55;;
61407;SDS011;47274;43.054;25.146;2024-03-02T03:20:09;27.80;;;14.00;;
61407;SDS011;47274;43.054;25.146;2024-03-02T03:22:38;32.67;;;17.17;;
61407;SDS011;47274;43.054;25.146;2024-03-02T03:25:04;38.15;;;20.50;;
61407;SDS011;47274;43.054;25.146;2024-03-02T03:27:33;33.45;;;18.90;;
61407;SDS011;47274;43.054;25.146;2024-03-02T03:29:59;34.20;;;17.88;;
61407;SDS011;47274;43.054;25.146;2024-03-02T03:32:28;34.90;;;19.35;;
61407;SDS011;47274;43.054;25.146;2024-03-02T03:34:54;35.05;;;19.98;;
61407;SDS011;47274;43.054;25.146;2024-03-02T03:37:20;36.78;;;19.02;;
61407;SDS011;47274;43.054;25.146;2024-03-02T03:39:52;39.07;;;21.13;;
61407;SDS011;47274;43.054;25.146;2024-03-02T03:42:18;37.03;;;20.67;;
61407;SDS011;47274;43.054;25.146;2024-03-02T03:44:43;35.97;;;18.35;;
61407;SDS011;47274;43.054;25.146;2024-03-02T03:47:09;33.90;;;18.63;;
61407;SDS011;47274;43.054;25.146;2024-03-02T03:49:35;42.22;;;22.92;;
61407;SDS011;47274;43.054;25.146;2024-03-02T03:52:00;37.40;;;21.35;;
61407;SDS011;47274;43.054;25.146;2024-03-02T03:54:26;36.88;;;19.27;;
61407;SDS011;47274;43.054;25.146;2024-03-02T03:56:52;41.97;;;23.08;;
61407;SDS011;47274;43.054;25.146;2024-03-02T03:59:17;42.15;;;24.23;;
61407;SDS011;47274;43.054;25.146;2024-03-02T04:01:43;43.05;;;23.10;;
61407;SDS011;47274;43.054;25.146;2024-03-02T04:04:09;40.97;;;23.45;;
61407;SDS011;47274;43.054;25.146;2024-03-02T04:06:34;41.38;;;24.42;;
61407;SDS011;47274;43.054;25.146;2024-03-02T04:09:00;48.50;;;28.02;;
61407;SDS011;47274;43.054;25.146;2024-03-02T04:11:26;59.78;;;35.03;;
61407;SDS011;47274;43.054;25.146;2024-03-02T04:13:52;49.67;;;28.88;;
61407;SDS011;47274;43.054;25.146;2024-03-02T04:16:18;47.42;;;25.70;;
61407;SDS011;47274;43.054;25.146;2024-03-02T04:18:43;44.28;;;24.95;;
61407;SDS011;47274;43.054;25.146;2024-03-02T04:21:09;41.88;;;24.15;;
61407;SDS011;47274;43.054;25.146;2024-03-02T04:23:38;44.08;;;24.33;;
61407;SDS011;47274;43.054;25.146;2024-03-02T04:26:04;44.15;;;25.27;;
61407;SDS011;47274;43.054;25.146;2024-03-02T04:28:31;35.08;;;18.92;;
61407;SDS011;47274;43.054;25.146;2024-03-02T04:33:43;36.42;;;21.35;;
61407;SDS011;47274;43.054;25.146;2024-03-02T04:39:41;44.28;;;25.10;;
61407;SDS011;47274;43.054;25.146;2024-03-02T04:42:13;44.88;;;25.95;;
61407;SDS011;47274;43.054;25.146;2024-03-02T04:44:50;43.58;;;25.15;;
61407;SDS011;47274;43.054;25.146;2024-03-02T04:47:19;44.72;;;24.98;;
61407;SDS011;47274;43.054;25.146;2024-03-02T04:49:51;44.40;;;26.17;;
61407;SDS011;47274;43.054;25.146;2024-03-02T04:52:17;41.78;;;24.23;;
61407;SDS011;47274;43.054;25.146;2024-03-02T04:54:48;43.75;;;25.67;;
61407;SDS011;47274;43.054;25.146;2024-03-02T04:57:33;45.33;;;24.17;;
61407;SDS011;47274;43.054;25.146;2024-03-02T05:00:23;55.17;;;24.83;;
61407;SDS011;47274;43.054;25.146;2024-03-02T05:03:01;47.97;;;24.13;;
61407;SDS011;47274;43.054;25.146;2024-03-02T05:05:35;42.17;;;24.67;;
61407;SDS011;47274;43.054;25.146;2024-03-02T05:08:02;39.03;;;21.88;;
61407;SDS011;47274;43.054;25.146;2024-03-02T05:10:29;40.42;;;23.13;;
61407;SDS011;47274;43.054;25.146;2024-03-02T05:13:04;57.55;;;27.73;;
61407;SDS011;47274;43.054;25.146;2024-03-02T05:15:35;46.00;;;22.83;;
61407;SDS011;47274;43.054;25.146;2024-03-02T05:18:16;44.65;;;25.55;;
61407;SDS011;47274;43.054;25.146;2024-03-02T05:21:10;43.05;;;24.42;;
61407;SDS011;47274;43.054;25.146;2024-03-02T05:23:51;43.22;;;24.75;;
61407;SDS011;47274;43.054;25.146;2024-03-02T05:26:47;44.53;;;24.85;;
61407;SDS011;47274;43.054;25.146;2024-03-02T05:29:13;47.47;;;25.42;;
61407;SDS011;47274;43.054;25.146;2024-03-02T05:31:44;47.78;;;24.55;;
61407;SDS011;47274;43.054;25.146;2024-03-02T05:34:10;48.80;;;25.33;;
61407;SDS011;47274;43.054;25.146;2024-03-02T05:36:35;47.28;;;25.17;;
61407;SDS011;47274;43.054;25.146;2024-03-02T05:39:02;51.05;;;26.55;;
61407;SDS011;47274;43.054;25.146;2024-03-02T05:41:30;49.33;;;26.00;;
61407;SDS011;47274;43.054;25.146;2024-03-02T05:43:56;46.03;;;24.90;;
61407;SDS011;47274;43.054;25.146;2024-03-02T05:46:22;48.75;;;24.95;;
61407;SDS011;47274;43.054;25.146;2024-03-02T05:48:47;46.20;;;22.98;;
61407;SDS011;47274;43.054;25.146;2024-03-02T05:51:13;50.72;;;24.60;;
61407;SDS011;47274;43.054;25.146;2024-03-02T05:53:39;59.08;;;24.05;;
61407;SDS011;47274;43.054;25.146;2024-03-02T05:56:05;36.80;;;21.50;;
61407;SDS011;47274;43.054;25.146;2024-03-02T05:58:31;38.25;;;20.40;;
61407;SDS011;47274;43.054;25.146;2024-03-02T06:01:15;43.00;;;23.13;;
61407;SDS011;47274;43.054;25.146;2024-03-02T06:03:43;50.65;;;22.80;;
61407;SDS011;47274;43.054;25.146;2024-03-02T06:06:09;33.05;;;19.95;;
61407;SDS011;47274;43.054;25.146;2024-03-02T06:08:35;33.13;;;19.05;;
61407;SDS011;47274;43.054;25.146;2024-03-02T06:11:01;36.65;;;21.52;;
61407;SDS011;47274;43.054;25.146;2024-03-02T06:13:26;37.22;;;19.02;;
61407;SDS011;47274;43.054;25.146;2024-03-02T06:15:52;32.80;;;18.48;;
61407;SDS011;47274;43.054;25.146;2024-03-02T06:18:18;34.40;;;20.42;;
61407;SDS011;47274;43.054;25.146;2024-03-02T06:20:44;32.88;;;19.42;;
61407;SDS011;47274;43.054;25.146;2024-03-02T06:23:09;34.42;;;19.85;;
61407;SDS011;47274;43.054;25.146;2024-03-02T06:25:35;38.83;;;21.85;;
61407;SDS011;47274;43.054;25.146;2024-03-02T06:28:01;75.00;;;21.70;;
61407;SDS011;47274;43.054;25.146;2024-03-02T06:30:26;36.22;;;20.70;;
61407;SDS011;47274;43.054;25.146;2024-03-02T06:32:52;40.67;;;21.88;;
61407;SDS011;47274;43.054;25.146;2024-03-02T06:35:18;44.35;;;22.60;;
61407;SDS011;47274;43.054;25.146;2024-03-02T06:37:43;38.40;;;22.42;;
61407;SDS011;47274;43.054;25.146;2024-03-02T06:40:09;49.70;;;23.70;;
61407;SDS011;47274;43.054;25.146;2024-03-02T06:42:35;45.47;;;27.13;;
61407;SDS011;47274;43.054;25.146;2024-03-02T06:45:01;40.08;;;22.45;;
61407;SDS011;47274;43.054;25.146;2024-03-02T06:47:28;49.47;;;24.33;;
61407;SDS011;47274;43.054;25.146;2024-03-02T06:49:54;38.80;;;23.15;;
61407;SDS011;47274;43.054;25.146;2024-03-02T06:52:19;45.85;;;25.33;;
61407;SDS011;47274;43.054;25.146;2024-03-02T06:54:46;54.03;;;23.50;;
61407;SDS011;47274;43.054;25.146;2024-03-02T06:57:12;47.28;;;22.48;;
61407;SDS011;47274;43.054;25.146;2024-03-02T06:59:37;45.50;;;23.73;;
61407;SDS011;47274;43.054;25.146;2024-03-02T07:02:03;44.65;;;26.50;;
61407;SDS011;47274;43.054;25.146;2024-03-02T07:04:29;42.67;;;25.00;;
61407;SDS011;47274;43.054;25.146;2024-03-02T07:06:54;38.45;;;20.75;;
61407;SDS011;47274;43.054;25.146;2024-03-02T07:09:20;38.95;;;23.17;;
61407;SDS011;47274;43.054;25.146;2024-03-02T07:11:48;46.45;;;25.80;;
61407;SDS011;47274;43.054;25.146;2024-03-02T07:14:14;48.97;;;24.42;;
61407;SDS011;47274;43.054;25.146;2024-03-02T07:16:40;36.92;;;21.10;;
61407;SDS011;47274;43.054;25.146;2024-03-02T07:19:08;36.85;;;23.00;;
61407;SDS011;47274;43.054;25.146;2024-03-02T07:21:34;37.13;;;23.17;;
61407;SDS011;47274;43.054;25.146;2024-03-02T07:24:00;35.33;;;21.30;;
61407;SDS011;47274;43.054;25.146;2024-03-02T07:26:28;38.55;;;23.08;;
61407;SDS011;47274;43.054;25.146;2024-03-02T07:28:56;42.47;;;25.20;;
61407;SDS011;47274;43.054;25.146;2024-03-02T07:31:22;47.50;;;24.40;;
61407;SDS011;47274;43.054;25.146;2024-03-02T07:33:48;40.17;;;23.35;;
61407;SDS011;47274;43.054;25.146;2024-03-02T07:36:14;42.90;;;22.75;;
61407;SDS011;47274;43.054;25.146;2024-03-02T07:38:40;38.03;;;22.63;;
61407;SDS011;47274;43.054;25.146;2024-03-02T07:41:07;42.97;;;23.33;;
61407;SDS011;47274;43.054;25.146;2024-03-02T07:43:33;42.80;;;24.17;;
61407;SDS011;47274;43.054;25.146;2024-03-02T07:45:59;40.15;;;22.83;;
61407;SDS011;47274;43.054;25.146;2024-03-02T07:48:25;44.28;;;26.13;;
61407;SDS011;47274;43.054;25.146;2024-03-02T07:50:52;40.08;;;24.27;;
61407;SDS011;47274;43.054;25.146;2024-03-02T07:53:17;39.13;;;22.98;;
61407;SDS011;47274;43.054;25.146;2024-03-02T07:55:43;37.28;;;21.73;;
61407;SDS011;47274;43.054;25.146;2024-03-02T07:58:09;62.40;;;36.75;;
61407;SDS011;47274;43.054;25.146;2024-03-02T08:00:38;42.33;;;26.50;;
61407;SDS011;47274;43.054;25.146;2024-03-02T08:03:05;43.42;;;26.75;;
61407;SDS011;47274;43.054;25.146;2024-03-02T08:05:31;39.47;;;23.58;;
61407;SDS011;47274;43.054;25.146;2024-03-02T08:07:57;37.78;;;22.23;;
61407;SDS011;47274;43.054;25.146;2024-03-02T08:10:23;43.28;;;26.60;;
61407;SDS011;47274;43.054;25.146;2024-03-02T08:12:49;40.75;;;24.55;;
61407;SDS011;47274;43.054;25.146;2024-03-02T08:15:14;38.35;;;24.08;;
61407;SDS011;47274;43.054;25.146;2024-03-02T08:17:40;37.95;;;23.23;;
61407;SDS011;47274;43.054;25.146;2024-03-02T08:20:13;41.13;;;23.90;;
61407;SDS011;47274;43.054;25.146;2024-03-02T08:22:39;37.13;;;22.77;;
61407;SDS011;47274;43.054;25.146;2024-03-02T08:25:05;38.55;;;22.90;;
61407;SDS011;47274;43.054;25.146;2024-03-02T08:27:33;39.38;;;23.17;;
61407;SDS011;47274;43.054;25.146;2024-03-02T08:29:59;39.28;;;23.50;;
61407;SDS011;47274;43.054;25.146;2024-03-02T08:32:24;37.50;;;23.35;;
61407;SDS011;47274;43.054;25.146;2024-03-02T08:34:50;35.85;;;20.60;;
61407;SDS011;47274;43.054;25.146;2024-03-02T08:37:16;35.35;;;21.30;;
61407;SDS011;47274;43.054;25.146;2024-03-02T08:39:42;47.00;;;29.48;;
61407;SDS011;47274;43.054;25.146;2024-03-02T08:42:07;36.85;;;23.23;;
61407;SDS011;47274;43.054;25.146;2024-03-02T08:44:33;41.90;;;24.98;;
61407;SDS011;47274;43.054;25.146;2024-03-02T08:46:59;36.70;;;21.50;;
61407;SDS011;47274;43.054;25.146;2024-03-02T08:49:25;36.88;;;21.85;;
61407;SDS011;47274;43.054;25.146;2024-03-02T08:51:50;35.75;;;21.65;;
61407;SDS011;47274;43.054;25.146;2024-03-02T08:54:21;49.25;;;33.50;;
61407;SDS011;47274;43.054;25.146;2024-03-02T08:56:47;46.67;;;30.30;;
61407;SDS011;47274;43.054;25.146;2024-03-02T08:59:17;38.88;;;25.02;;
61407;SDS011;47274;43.054;25.146;2024-03-02T09:01:43;38.22;;;24.52;;
61407;SDS011;47274;43.054;25.146;2024-03-02T09:04:08;37.10;;;23.90;;
61407;SDS011;47274;43.054;25.146;2024-03-02T09:06:34;44.63;;;28.15;;
61407;SDS011;47274;43.054;25.146;2024-03-02T09:09:00;39.15;;;23.90;;
61407;SDS011;47274;43.054;25.146;2024-03-02T09:11:26;38.03;;;23.60;;
61407;SDS011;47274;43.054;25.146;2024-03-02T09:13:52;35.28;;;22.27;;
61407;SDS011;47274;43.054;25.146;2024-03-02T09:16:18;35.70;;;21.35;;
61407;SDS011;47274;43.054;25.146;2024-03-02T09:18:44;36.50;;;22.70;;
61407;SDS011;47274;43.054;25.146;2024-03-02T09:21:10;37.15;;;22.70;;
61407;SDS011;47274;43.054;25.146;2024-03-02T09:23:36;38.75;;;23.75;;
61407;SDS011;47274;43.054;25.146;2024-03-02T09:26:01;38.22;;;22.83;;
61407;SDS011;47274;43.054;25.146;2024-03-02T09:28:28;36.00;;;23.10;;
61407;SDS011;47274;43.054;25.146;2024-03-02T09:30:54;35.55;;;22.63;;
61407;SDS011;47274;43.054;25.146;2024-03-02T09:33:20;35.03;;;21.80;;
61407;SDS011;47274;43.054;25.146;2024-03-02T09:35:45;32.60;;;20.70;;
61407;SDS011;47274;43.054;25.146;2024-03-02T09:38:11;34.55;;;20.85;;
61407;SDS011;47274;43.054;25.146;2024-03-02T09:40:37;35.30;;;22.73;;
61407;SDS011;47274;43.054;25.146;2024-03-02T09:43:03;32.65;;;19.95;;
61407;SDS011;47274;43.054;25.146;2024-03-02T09:45:29;32.72;;;20.25;;
61407;SDS011;47274;43.054;25.146;2024-03-02T09:47:55;37.38;;;24.33;;
61407;SDS011;47274;43.054;25.146;2024-03-02T09:50:21;38.17;;;24.77;;
61407;SDS011;47274;43.054;25.146;2024-03-02T09:52:50;35.92;;;23.38;;
61407;SDS011;47274;43.054;25.146;2024-03-02T09:55:18;35.95;;;23.80;;
61407;SDS011;47274;43.054;25.146;2024-03-02T09:57:47;37.83;;;23.95;;
61407;SDS011;47274;43.054;25.146;2024-03-02T10:00:15;35.67;;;22.55;;
61407;SDS011;47274;43.054;25.146;2024-03-02T10:02:41;35.80;;;22.58;;
61407;SDS011;47274;43.054;25.146;2024-03-02T10:05:10;35.85;;;21.77;;
61407;SDS011;47274;43.054;25.146;2024-03-02T10:07:37;34.42;;;22.23;;
61407;SDS011;47274;43.054;25.146;2024-03-02T10:10:13;32.65;;;21.13;;
61407;SDS011;47274;43.054;25.146;2024-03-02T10:12:39;35.83;;;22.38;;
61407;SDS011;47274;43.054;25.146;2024-03-02T10:15:05;33.67;;;22.00;;
61407;SDS011;47274;43.054;25.146;2024-03-02T10:17:32;35.95;;;23.17;;
61407;SDS011;47274;43.054;25.146;2024-03-02T10:19:58;36.40;;;20.98;;
61407;SDS011;47274;43.054;25.146;2024-03-02T10:22:24;35.58;;;22.25;;
61407;SDS011;47274;43.054;25.146;2024-03-02T10:24:52;46.30;;;30.35;;
61407;SDS011;47274;43.054;25.146;2024-03-02T10:27:22;114.13;;;91.35;;
61407;SDS011;47274;43.054;25.146;2024-03-02T10:29:49;46.70;;;34.53;;
61407;SDS011;47274;43.054;25.146;2024-03-02T10:32:15;45.63;;;33.47;;
61407;SDS011;47274;43.054;25.146;2024-03-02T10:34:42;908.75;;;777.13;;
61407;SDS011;47274;43.054;25.146;2024-03-02T10:37:12;481.00;;;417.25;;
61407;SDS011;47274;43.054;25.146;2024-03-02T10:39:40;768.10;;;640.67;;
61407;SDS011;47274;43.054;25.146;2024-03-02T10:42:06;1524.85;;;936.80;;
61407;SDS011;47274;43.054;25.146;2024-03-02T10:44:33;1554.15;;;954.10;;
61407;SDS011;47274;43.054;25.146;2024-03-02T10:47:00;1999.90;;;999.90;;
61407;SDS011;47274;43.054;25.146;2024-03-02T10:49:30;1887.00;;;998.30;;
61407;SDS011;47274;43.054;25.146;2024-03-02T10:51:57;1774.13;;;994.15;;
61407;SDS011;47274;43.054;25.146;2024-03-02T10:54:23;799.22;;;593.75;;
61407;SDS011;47274;43.054;25.146;2024-03-02T10:56:52;922.80;;;721.85;;
61407;SDS011;47274;43.054;25.146;2024-03-02T10:59:35;586.28;;;456.88;;
61407;SDS011;47274;43.054;25.146;2024-03-02T11:02:04;575.05;;;452.30;;
61407;SDS011;47274;43.054;25.146;2024-03-02T11:04:32;540.78;;;408.55;;
61407;SDS011;47274;43.054;25.146;2024-03-02T11:07:02;462.25;;;340.63;;
61407;SDS011;47274;43.054;25.146;2024-03-02T11:09:39;283.80;;;188.55;;
61407;SDS011;47274;43.054;25.146;2024-03-02T11:12:13;325.85;;;232.43;;
61407;SDS011;47274;43.054;25.146;2024-03-02T11:14:50;251.07;;;176.75;;
61407;SDS011;47274;43.054;25.146;2024-03-02T11:17:19;154.93;;;108.45;;
61407;SDS011;47274;43.054;25.146;2024-03-02T11:19:49;194.40;;;131.73;;
61407;SDS011;47274;43.054;25.146;2024-03-02T11:22:15;158.45;;;107.68;;
61407;SDS011;47274;43.054;25.146;2024-03-02T11:24:47;127.00;;;88.10;;
61407;SDS011;47274;43.054;25.146;2024-03-02T11:32:59;95.47;;;69.95;;
61407;SDS011;47274;43.054;25.146;2024-03-02T11:35:26;86.18;;;59.92;;
61407;SDS011;47274;43.054;25.146;2024-03-02T11:37:54;65.65;;;46.58;;
61407;SDS011;47274;43.054;25.146;2024-03-02T11:40:24;60.40;;;43.33;;
61407;SDS011;47274;43.054;25.146;2024-03-02T11:42:50;62.88;;;45.42;;
61407;SDS011;47274;43.054;25.146;2024-03-02T11:45:17;60.78;;;43.97;;
61407;SDS011;47274;43.054;25.146;2024-03-02T11:47:50;50.00;;;33.58;;
61407;SDS011;47274;43.054;25.146;2024-03-02T11:53:08;47.38;;;30.85;;
61407;SDS011;47274;43.054;25.146;2024-03-02T11:55:36;41.20;;;27.60;;
61407;SDS011;47274;43.054;25.146;2024-03-02T11:58:03;40.35;;;26.27;;
61407;SDS011;47274;43.054;25.146;2024-03-02T12:00:29;38.03;;;23.92;;
61407;SDS011;47274;43.054;25.146;2024-03-02T12:03:03;36.25;;;23.50;;
61407;SDS011;47274;43.054;25.146;2024-03-02T12:05:30;34.20;;;20.52;;
61407;SDS011;47274;43.054;25.146;2024-03-02T12:08:01;33.70;;;19.92;;
61407;SDS011;47274;43.054;25.146;2024-03-02T12:10:28;34.22;;;20.05;;
61407;SDS011;47274;43.054;25.146;2024-03-02T12:12:55;36.22;;;21.13;;
61407;SDS011;47274;43.054;25.146;2024-03-02T12:15:27;31.83;;;18.30;;
61407;SDS011;47274;43.054;25.146;2024-03-02T12:17:57;30.63;;;18.52;;
61407;SDS011;47274;43.054;25.146;2024-03-02T12:20:25;30.63;;;17.90;;
61407;SDS011;47274;43.054;25.146;2024-03-02T12:22:53;30.08;;;17.80;;
61407;SDS011;47274;43.054;25.146;2024-03-02T12:25:20;30.63;;;17.92;;
61407;SDS011;47274;43.054;25.146;2024-03-02T12:27:51;33.15;;;19.63;;
61407;SDS011;47274;43.054;25.146;2024-03-02T12:30:19;29.42;;;17.27;;
61407;SDS011;47274;43.054;25.146;2024-03-02T12:32:46;31.02;;;17.73;;
61407;SDS011;47274;43.054;25.146;2024-03-02T12:35:13;28.90;;;17.05;;
61407;SDS011;47274;43.054;25.146;2024-03-02T12:37:43;29.17;;;16.75;;
61407;SDS011;47274;43.054;25.146;2024-03-02T12:40:10;30.65;;;17.52;;
61407;SDS011;47274;43.054;25.146;2024-03-02T12:42:36;33.15;;;18.73;;
61407;SDS011;47274;43.054;25.146;2024-03-02T12:45:02;40.80;;;24.08;;
61407;SDS011;47274;43.054;25.146;2024-03-02T12:47:29;36.55;;;21.83;;
61407;SDS011;47274;43.054;25.146;2024-03-02T12:49:55;35.47;;;20.92;;
61407;SDS011;47274;43.054;25.146;2024-03-02T12:52:21;33.58;;;19.63;;
61407;SDS011;47274;43.054;25.146;2024-03-02T12:54:47;37.75;;;22.50;;
61407;SDS011;47274;43.054;25.146;2024-03-02T12:57:18;35.67;;;19.73;;
61407;SDS011;47274;43.054;25.146;2024-03-02T12:59:47;39.33;;;22.70;;
61407;SDS011;47274;43.054;25.146;2024-03-02T13:02:19;36.22;;;23.33;;
61407;SDS011;47274;43.054;25.146;2024-03-02T13:04:52;32.15;;;18.00;;
61407;SDS011;47274;43.054;25.146;2024-03-02T13:07:22;37.67;;;20.58;;
61407;SDS011;47274;43.054;25.146;2024-03-02T13:09:52;34.15;;;19.58;;
61407;SDS011;47274;43.054;25.146;2024-03-02T13:12:22;37.33;;;20.85;;
61407;SDS011;47274;43.054;25.146;2024-03-02T13:14:49;37.53;;;19.77;;
61407;SDS011;47274;43.054;25.146;2024-03-02T13:17:17;31.80;;;18.25;;
61407;SDS011;47274;43.054;25.146;2024-03-02T13:22:20;31.23;;;17.50;;
61407;SDS011;47274;43.054;25.146;2024-03-02T13:24:47;37.53;;;20.00;;
61407;SDS011;47274;43.054;25.146;2024-03-02T13:27:13;33.97;;;19.67;;
61407;SDS011;47274;43.054;25.146;2024-03-02T13:29:39;33.75;;;18.90;;
61407;SDS011;47274;43.054;25.146;2024-03-02T13:32:05;34.22;;;18.98;;
61407;SDS011;47274;43.054;25.146;2024-03-02T13:34:31;35.83;;;19.70;;
61407;SDS011;47274;43.054;25.146;2024-03-02T13:36:56;32.65;;;18.52;;
61407;SDS011;47274;43.054;25.146;2024-03-02T13:39:22;40.50;;;23.27;;
61407;SDS011;47274;43.054;25.146;2024-03-02T13:41:48;33.15;;;18.05;;
61407;SDS011;47274;43.054;25.146;2024-03-02T13:44:18;33.38;;;18.45;;
61407;SDS011;47274;43.054;25.146;2024-03-02T13:46:44;37.90;;;20.25;;
61407;SDS011;47274;43.054;25.146;2024-03-02T13:49:11;35.17;;;18.88;;
61407;SDS011;47274;43.054;25.146;2024-03-02T13:51:37;38.78;;;20.85;;
61407;SDS011;47274;43.054;25.146;2024-03-02T13:54:03;32.40;;;18.10;;
61407;SDS011;47274;43.054;25.146;2024-03-02T13:56:29;37.88;;;21.38;;
61407;SDS011;47274;43.054;25.146;2024-03-02T13:58:55;38.58;;;22.92;;
61407;SDS011;47274;43.054;25.146;2024-03-02T14:01:21;39.05;;;21.00;;
61407;SDS011;47274;43.054;25.146;2024-03-02T14:03:47;37.95;;;21.08;;
61407;SDS011;47274;43.054;25.146;2024-03-02T14:06:13;40.67;;;23.73;;
61407;SDS011;47274;43.054;25.146;2024-03-02T14:08:38;34.38;;;18.70;;
61407;SDS011;47274;43.054;25.146;2024-03-02T14:11:04;38.35;;;21.52;;
61407;SDS011;47274;43.054;25.146;2024-03-02T14:13:30;35.15;;;20.38;;
61407;SDS011;47274;43.054;25.146;2024-03-02T14:15:56;37.33;;;19.83;;
61407;SDS011;47274;43.054;25.146;2024-03-02T14:18:23;36.33;;;19.75;;
61407;SDS011;47274;43.054;25.146;2024-03-02T14:20:49;34.17;;;18.02;;
61407;SDS011;47274;43.054;25.146;2024-03-02T14:23:18;33.67;;;19.27;;
61407;SDS011;47274;43.054;25.146;2024-03-02T14:25:45;29.58;;;17.70;;
61407;SDS011;47274;43.054;25.146;2024-03-02T14:28:11;32.80;;;19.58;;
61407;SDS011;47274;43.054;25.146;2024-03-02T14:30:37;34.13;;;17.98;;
61407;SDS011;47274;43.054;25.146;2024-03-02T14:33:03;33.58;;;19.35;;
61407;SDS011;47274;43.054;25.146;2024-03-02T14:35:29;32.58;;;18.33;;
61407;SDS011;47274;43.054;25.146;2024-03-02T14:37:55;29.73;;;16.90;;